Time;durP1;ratioP1;P1;durP2;ratioP2;P2;SDS_P1;SDS_P2;PMS_P1;PMS_P2;Temp;Humidity;BMP_temperature;BMP_pressure;BME280_temperature;BME280_humidity;BME280_pressure;Samples;Min_cycle;Max_cycle;Signal;HPM_P1;HPM_P2
2021/06/08 00:00:27;;;;;;;35.50;27.95;;;;;;;13.88;90.21;100887.41;5015097;28;20052;-73
2021/06/08 00:02:54;;;;;;;41.42;27.70;;;;;;;13.86;90.15;100892.03;5014170;28;20366;-73
2021/06/08 00:05:21;;;;;;;36.58;26.05;;;;;;;13.93;89.81;100897.84;5015404;28;20053;-73
2021/06/08 00:07:48;;;;;;;35.75;26.75;;;;;;;13.87;90.08;100892.88;5015086;28;20049;-73
2021/06/08 00:10:16;;;;;;;37.60;26.17;;;;;;;13.89;89.86;100890.97;5015105;28;20135;-74
2021/06/08 00:12:43;;;;;;;35.88;25.98;;;;;;;13.83;89.88;100892.22;5015127;28;20431;-73
2021/06/08 00:15:10;;;;;;;43.05;28.88;;;;;;;13.86;90.04;100892.03;5014184;28;20053;-73
2021/06/08 00:17:37;;;;;;;37.00;26.75;;;;;;;13.77;90.38;100898.84;5015288;28;20416;-73
2021/06/08 00:20:06;;;;;;;41.60;29.50;;;;;;;13.74;90.55;100892.81;5023289;28;20072;-73
2021/06/08 00:22:33;;;;;;;40.22;28.40;;;;;;;13.74;90.58;100891.00;5014755;28;20367;-73
2021/06/08 00:25:00;;;;;;;43.33;28.95;;;;;;;13.71;90.55;100894.72;5013799;28;20081;-73
2021/06/08 00:27:27;;;;;;;40.75;29.13;;;;;;;13.69;90.32;100893.94;5014854;28;20100;-73
2021/06/08 00:29:54;;;;;;;40.65;29.05;;;;;;;13.64;90.46;100892.50;5014780;28;20081;-73
2021/06/08 00:32:22;;;;;;;38.85;29.40;;;;;;;13.62;90.92;100894.44;5015116;28;20050;-73
2021/06/08 00:34:49;;;;;;;40.20;28.95;;;;;;;13.66;90.51;100893.25;5014016;28;20061;-74
2021/06/08 00:37:18;;;;;;;40.75;29.85;;;;;;;13.60;90.63;100886.47;5022626;28;20096;-73
2021/06/08 00:39:45;;;;;;;48.63;30.75;;;;;;;13.63;90.70;100899.72;5020636;28;20053;-73
2021/06/08 00:42:11;;;;;;;39.65;30.33;;;;;;;13.57;91.19;100894.72;5033708;28;20443;-73
2021/06/08 00:44:39;;;;;;;41.67;30.02;;;;;;;13.55;91.32;100894.81;5018370;28;20435;-73
2021/06/08 00:47:06;;;;;;;39.78;29.65;;;;;;;13.53;91.31;100895.84;5018903;28;20053;-74
2021/06/08 00:49:33;;;;;;;44.13;31.27;;;;;;;13.54;91.32;100894.91;5017407;28;20065;-73
2021/06/08 00:52:00;;;;;;;49.90;33.45;;;;;;;13.52;91.40;100896.81;5018259;28;20050;-73
2021/06/08 00:54:26;;;;;;;45.53;31.88;;;;;;;13.49;91.28;100887.16;5017832;28;20054;-74
2021/06/08 00:56:55;;;;;;;45.95;32.55;;;;;;;13.47;91.38;100888.19;5018123;28;20058;-74
2021/06/08 00:59:22;;;;;;;42.85;30.63;;;;;;;13.49;91.31;100897.00;5032973;28;20129;-73
2021/06/08 01:01:48;;;;;;;45.47;32.92;;;;;;;13.44;91.17;100886.53;5017790;28;20300;-73
2021/06/08 01:04:15;;;;;;;48.72;32.47;;;;;;;13.37;91.36;100888.72;5017771;28;20064;-73
2021/06/08 01:06:47;;;;;;;44.55;31.63;;;;;;;13.33;91.66;100881.81;5017631;28;20092;-73
2021/06/08 01:09:14;;;;;;;45.25;32.38;;;;;;;13.34;91.72;100883.53;5017700;28;20057;-73
2021/06/08 01:11:41;;;;;;;48.45;32.97;;;;;;;13.28;91.95;100892.84;5017631;28;20050;-73
2021/06/08 01:14:08;;;;;;;48.42;32.00;;;;;;;13.21;92.16;100891.47;5017931;28;20081;-73
2021/06/08 01:16:35;;;;;;;43.13;30.95;;;;;;;13.26;92.13;100884.03;5016676;28;20096;-73
2021/06/08 01:19:02;;;;;;;44.70;30.33;;;;;;;13.22;91.87;100887.84;5017735;28;20050;-74
2021/06/08 01:21:29;;;;;;;49.30;33.50;;;;;;;13.25;91.97;100900.19;5016424;28;20098;-73
2021/06/08 01:23:56;;;;;;;47.67;33.10;;;;;;;13.22;91.78;100890.53;5016338;28;20053;-73
2021/06/08 01:26:25;;;;;;;45.75;32.85;;;;;;;13.18;91.70;100892.53;5016578;28;20050;-73
2021/06/08 01:28:53;;;;;;;48.05;33.60;;;;;;;13.21;92.06;100891.47;5017773;28;20058;-73
2021/06/08 01:31:22;;;;;;;48.85;32.63;;;;;;;13.21;91.90;100893.28;5017410;28;20606;-74
2021/06/08 01:33:49;;;;;;;47.77;32.70;;;;;;;13.20;91.76;100894.25;5017053;28;20050;-73
2021/06/08 01:36:19;;;;;;;45.85;31.48;;;;;;;13.14;92.06;100895.50;5017664;28;20054;-73
2021/06/08 01:38:49;;;;;;;46.67;32.42;;;;;;;13.11;92.25;100895.66;5017409;28;20099;-74
2021/06/08 01:41:19;;;;;;;46.67;31.60;;;;;;;13.15;92.03;100895.41;5017406;28;20049;-73
2021/06/08 01:43:47;;;;;;;44.88;32.40;;;;;;;13.05;92.38;100891.53;5017178;28;20073;-73
2021/06/08 01:46:18;;;;;;;48.03;32.33;;;;;;;13.11;92.34;100896.53;5015892;28;20200;-73
2021/06/08 01:48:46;;;;;;;49.90;33.05;;;;;;;13.00;92.43;100893.63;5017329;28;20050;-73
2021/06/08 01:51:40;;;;;;;46.17;32.50;;;;;;;13.05;92.56;100904.94;5016997;28;20555;-73
2021/06/08 01:54:15;;;;;;;51.08;34.28;;;;;;;13.01;92.76;100903.38;5016110;28;20050;-72
2021/06/08 01:56:46;;;;;;;52.75;34.25;;;;;;;12.99;92.54;100902.63;5016790;28;20494;-73
2021/06/08 01:59:25;;;;;;;49.78;34.38;;;;;;;13.02;92.68;100910.50;5017180;28;20046;-73
2021/06/08 02:02:05;;;;;;;53.15;34.72;;;;;;;12.98;93.05;100906.25;5017053;28;20050;-73
2021/06/08 02:05:14;;;;;;;52.70;35.93;;;;;;;12.91;92.96;100895.03;5016830;28;20137;-73
2021/06/08 02:07:54;;;;;;;52.05;34.63;;;;;;;12.90;92.88;100894.19;5016372;28;20477;-73
2021/06/08 02:10:36;;;;;;;47.58;33.65;;;;;;;12.89;93.07;100902.31;5015279;28;20325;-73
2021/06/08 02:13:32;;;;;;;53.92;34.35;;;;;;;12.81;92.82;100897.38;5016283;28;20058;-72
2021/06/08 02:16:19;;;;;;;47.53;33.40;;;;;;;12.88;92.62;100900.59;5016482;28;20049;-73
2021/06/08 02:18:48;;;;;;;49.50;33.35;;;;;;;12.90;92.52;100910.25;5016644;28;20053;-72
2021/06/08 02:21:19;;;;;;;49.40;33.75;;;;;;;12.93;92.62;100911.03;5015957;28;20054;-73
2021/06/08 02:23:51;;;;;;;49.25;33.33;;;;;;;12.88;92.86;100914.84;5015758;28;20053;-73
2021/06/08 02:26:20;;;;;;;50.65;33.95;;;;;;;12.85;92.92;100917.69;5016458;28;20124;-73
2021/06/08 02:28:50;;;;;;;49.05;32.22;;;;;;;12.84;92.56;100899.91;5016311;28;20130;-73
2021/06/08 02:31:19;;;;;;;50.08;33.90;;;;;;;12.84;92.69;100907.06;5016114;28;20046;-73
2021/06/08 02:33:47;;;;;;;48.03;32.65;;;;;;;12.83;92.62;100898.19;5016165;28;20054;-73
2021/06/08 02:36:14;;;;;;;50.28;33.13;;;;;;;12.84;92.92;100913.28;5016538;28;20058;-73
2021/06/08 02:38:43;;;;;;;51.08;34.45;;;;;;;12.86;93.05;100908.69;5015193;28;20053;-74
2021/06/08 02:41:11;;;;;;;53.58;35.78;;;;;;;12.70;93.08;100894.50;5016098;28;20514;-74
2021/06/08 02:43:39;;;;;;;50.83;34.55;;;;;;;12.68;93.18;100905.28;5014957;28;20447;-74
2021/06/08 02:46:07;;;;;;;55.03;35.10;;;;;;;12.76;93.05;100919.09;5015847;28;20054;-73
2021/06/08 02:48:36;;;;;;;51.20;34.58;;;;;;;12.73;93.09;100910.38;5015982;28;20494;-73
2021/06/08 02:51:04;;;;;;;48.17;34.03;;;;;;;12.77;93.02;100922.66;5015185;28;20050;-73
2021/06/08 02:53:32;;;;;;;52.60;34.80;;;;;;;12.72;92.91;100922.91;5016027;28;20045;-73
2021/06/08 02:55:59;;;;;;;57.45;33.95;;;;;;;12.69;92.97;100922.22;5015875;28;20056;-73
2021/06/08 02:58:27;;;;;;;53.85;35.17;;;;;;;12.60;93.34;100907.56;5015378;28;20065;-73
2021/06/08 03:00:54;;;;;;;50.45;34.65;;;;;;;12.65;93.13;100918.00;5015734;28;20128;-74
2021/06/08 03:03:28;;;;;;;57.50;36.20;;;;;;;12.58;93.66;100909.47;5015999;28;20066;-74
2021/06/08 03:06:21;;;;;;;51.65;35.85;;;;;;;12.56;93.90;100914.91;5015862;28;20369;-74
2021/06/08 03:09:03;;;;;;;51.53;36.00;;;;;;;12.56;93.94;100914.91;5015819;28;20046;-73
2021/06/08 03:11:38;;;;;;;56.17;36.33;;;;;;;12.57;94.17;100921.09;5015800;28;20045;-73
2021/06/08 03:14:07;;;;;;;56.83;36.33;;;;;;;12.57;93.66;100918.41;5015838;28;20053;-73
2021/06/08 03:16:37;;;;;;;59.10;37.80;;;;;;;12.46;94.09;100917.25;5015806;28;20057;-73
2021/06/08 03:19:07;;;;;;;62.45;38.08;;;;;;;12.52;94.19;100923.19;5020458;28;20147;-73
2021/06/08 03:21:39;;;;;;;61.95;39.10;;;;;;;12.55;94.24;100928.38;5033928;28;20057;-73
2021/06/08 03:24:09;;;;;;;56.78;39.08;;;;;;;12.57;93.71;100926.44;5035280;28;20053;-73
2021/06/08 03:26:38;;;;;;;59.55;39.08;;;;;;;12.50;94.25;100918.78;5035625;28;20053;-73
2021/06/08 03:29:08;;;;;;;62.67;40.17;;;;;;;12.42;94.09;100910.31;5034176;28;20053;-74
2021/06/08 03:31:37;;;;;;;55.25;36.92;;;;;;;12.39;94.55;100921.22;5035137;28;20493;-74
2021/06/08 03:34:04;;;;;;;60.30;40.00;;;;;;;12.39;95.11;100928.38;5034110;28;20057;-74
2021/06/08 03:36:33;;;;;;;58.15;38.28;;;;;;;12.40;94.82;100919.38;5035455;28;20046;-74
2021/06/08 03:39:00;;;;;;;56.08;36.92;;;;;;;12.42;94.44;100923.72;5034393;28;20049;-74
2021/06/08 03:41:27;;;;;;;57.35;37.58;;;;;;;12.45;94.31;100926.22;5034232;28;20060;-74
2021/06/08 03:43:55;;;;;;;59.78;38.42;;;;;;;12.44;94.35;100919.16;5034997;28;20509;-74
2021/06/08 03:46:24;;;;;;;53.00;36.55;;;;;;;12.44;93.86;100928.97;5034124;28;20107;-74
2021/06/08 03:48:52;;;;;;;54.33;35.72;;;;;;;12.43;93.95;100932.63;5035090;28;20053;-74
2021/06/08 03:51:20;;;;;;;57.80;37.20;;;;;;;12.39;94.43;100931.03;5035242;28;20423;-74
2021/06/08 03:53:47;;;;;;;59.03;38.17;;;;;;;12.38;94.53;100934.69;5034857;28;20379;-74
2021/06/08 03:56:15;;;;;;;60.30;37.65;;;;;;;12.36;94.41;100932.97;5033966;28;20046;-74
2021/06/08 03:58:43;;;;;;;54.15;36.65;;;;;;;12.36;94.42;100932.06;5034122;28;20061;-74
2021/06/08 04:01:10;;;;;;;55.08;37.53;;;;;;;12.41;94.44;100934.53;5035355;28;20058;-73
2021/06/08 04:03:39;;;;;;;56.25;37.00;;;;;;;12.40;94.77;100933.66;5036458;28;20422;-73
2021/06/08 04:06:09;;;;;;;54.83;37.53;;;;;;;12.32;94.60;100922.50;5036631;28;20049;-73
2021/06/08 04:08:36;;;;;;;56.00;36.78;;;;;;;12.35;94.68;100941.94;5034848;28;20096;-73
2021/06/08 04:11:02;;;;;;;54.28;36.40;;;;;;;12.34;95.04;100934.88;5038244;28;20053;-73
2021/06/08 04:13:29;;;;;;;56.63;36.83;;;;;;;12.35;95.51;100933.91;5038526;28;20382;-73
2021/06/08 04:15:57;;;;;;;58.08;36.67;;;;;;;12.37;95.54;100939.19;5037695;28;20053;-73
2021/06/08 04:18:30;;;;;;;56.88;37.05;;;;;;;12.44;94.66;100935.22;5038699;28;20088;-76
2021/06/08 04:20:59;;;;;;;60.85;36.55;;;;;;;12.43;94.42;100924.59;5018917;28;20179;-74
2021/06/08 04:23:26;;;;;;;53.65;36.05;;;;;;;12.48;94.78;100931.38;5018272;28;20058;-74
2021/06/08 04:25:53;;;;;;;54.92;35.67;;;;;;;12.46;94.53;100927.94;5018805;28;20061;-74
2021/06/08 04:28:21;;;;;;;52.88;36.53;;;;;;;12.52;94.47;100932.06;5017368;28;20050;-74
2021/06/08 04:30:49;;;;;;;52.22;35.75;;;;;;;12.48;94.63;100935.91;5018601;28;20072;-73
2021/06/08 04:33:27;;;;;;;53.78;36.03;;;;;;;12.51;94.42;100927.69;5018413;28;20085;-73
2021/06/08 04:35:55;;;;;;;53.50;36.13;;;;;;;12.52;94.61;100934.75;5018547;28;20093;-73
2021/06/08 04:38:22;;;;;;;53.22;35.40;;;;;;;12.55;94.69;100936.41;5019842;28;20054;-73
2021/06/08 04:40:52;;;;;;;53.50;35.83;;;;;;;12.56;94.70;100933.66;5020386;28;20060;-73
2021/06/08 04:43:24;;;;;;;53.33;34.55;;;;;;;12.51;95.04;100938.38;5020033;28;20056;-73
2021/06/08 04:45:51;;;;;;;49.97;35.25;;;;;;;12.53;94.57;100932.97;5022207;28;20466;-73
2021/06/08 04:48:22;;;;;;;51.30;34.40;;;;;;;12.54;94.46;100940.91;5019150;28;20359;-73
2021/06/08 04:50:51;;;;;;;51.78;35.35;;;;;;;12.59;94.53;100935.28;5018254;28;20124;-73
2021/06/08 04:53:18;;;;;;;49.45;34.45;;;;;;;12.60;94.53;100934.34;5017803;28;20514;-73
2021/06/08 04:55:45;;;;;;;50.05;36.03;;;;;;;12.68;95.00;100936.59;5018251;28;20100;-74
2021/06/08 04:58:11;;;;;;;54.50;36.20;;;;;;;12.71;95.16;100941.75;5017877;28;20076;-72
2021/06/08 05:00:45;;;;;;;51.40;34.97;;;;;;;12.76;95.29;100945.03;5033214;28;20432;-74
2021/06/08 05:03:15;;;;;;;57.70;35.78;;;;;;;12.78;95.06;100940.44;5017829;28;20054;-73
2021/06/08 05:05:50;;;;;;;55.20;36.60;;;;;;;12.82;95.35;100936.66;5018085;28;20395;-73
2021/06/08 05:08:26;;;;;;;50.15;34.90;;;;;;;12.99;95.21;100934.78;5017902;28;20057;-73
2021/06/08 05:11:13;;;;;;;53.08;36.00;;;;;;;13.16;95.25;100941.81;5017756;28;20046;-73
2021/06/08 05:13:46;;;;;;;56.47;35.08;;;;;;;13.24;95.21;100936.00;5017592;28;20053;-73
2021/06/08 05:16:14;;;;;;;55.13;35.95;;;;;;;13.29;95.28;100932.09;5017715;28;20525;-73
2021/06/08 05:18:44;;;;;;;49.80;34.60;;;;;;;13.34;95.19;100923.75;5016344;28;20089;-73
2021/06/08 05:21:17;;;;;;;52.63;35.25;;;;;;;13.46;94.96;100924.00;5016913;28;20048;-73
2021/06/08 05:23:48;;;;;;;52.00;35.67;;;;;;;13.63;94.28;100931.03;5017361;28;20068;-74
2021/06/08 05:26:15;;;;;;;53.28;35.67;;;;;;;13.74;94.27;100938.41;5017376;28;20112;-74
2021/06/08 05:28:42;;;;;;;54.47;39.13;;;;;;;13.77;93.85;100920.28;5017360;28;20049;-74
2021/06/08 05:31:09;;;;;;;52.35;36.42;;;;;;;13.95;93.77;100934.38;5017215;28;20057;-74
2021/06/08 05:33:36;;;;;;;55.03;39.22;;;;;;;14.07;93.54;100931.88;5016321;28;20054;-74
2021/06/08 05:36:03;;;;;;;59.85;40.50;;;;;;;14.13;93.03;100923.44;5016332;28;20440;-73
2021/06/08 05:38:36;;;;;;;58.78;41.10;;;;;;;14.23;93.42;100931.78;5017174;28;20128;-74
2021/06/08 05:41:05;;;;;;;61.20;40.95;;;;;;;14.29;93.54;100942.13;5015953;28;20431;-72
2021/06/08 05:43:32;;;;;;;61.92;41.28;;;;;;;14.32;93.64;100936.53;5017262;28;20049;-75
2021/06/08 05:45:59;;;;;;;55.53;39.83;;;;;;;14.35;93.67;100940.84;5020875;28;20049;-79
2021/06/08 05:48:26;;;;;;;58.03;40.65;;;;;;;14.35;93.92;100944.41;5027517;28;20478;-76
2021/06/08 05:50:57;;;;;;;58.85;39.60;;;;;;;14.32;93.77;100939.22;5039999;28;20050;-80
2021/06/08 05:53:25;;;;;;;61.10;39.78;;;;;;;14.39;93.86;100947.75;5025266;28;20525;-74
2021/06/08 05:55:55;;;;;;;57.08;40.88;;;;;;;14.39;93.99;100943.22;5026090;28;20041;-74
2021/06/08 05:58:28;;;;;;;;;;;;;;;14.47;93.68;100945.44;5026719;28;20050;-78
2021/06/08 06:00:57;;;;;;;58.72;39.65;;;;;;;14.53;93.93;100947.72;5026141;28;20016;-74
2021/06/08 06:03:26;;;;;;;57.72;39.40;;;;;;;14.60;93.88;100950.00;5025636;28;20107;-76
2021/06/08 06:05:57;;;;;;;59.80;40.08;;;;;;;14.68;93.97;100945.00;5027120;28;20058;-75
2021/06/08 06:08:25;;;;;;;51.95;38.25;;;;;;;14.74;93.74;100943.75;5025523;28;20472;-75
2021/06/08 06:10:52;;;;;;;52.95;37.85;;;;;;;14.84;92.54;100952.06;5027017;28;20071;-77
2021/06/08 06:13:29;;;;;;;51.70;37.60;;;;;;;14.93;92.03;100954.16;5025356;28;20103;-76
2021/06/08 06:15:56;;;;;;;52.28;36.75;;;;;;;14.99;91.68;100956.41;5020620;28;20045;-76
2021/06/08 06:18:24;;;;;;;47.90;36.15;;;;;;;15.06;91.45;100955.06;5027004;28;20058;-71
2021/06/08 06:20:53;;;;;;;47.78;36.05;;;;;;;15.12;91.16;100952.88;5018492;28;20200;-73
2021/06/08 06:23:22;;;;;;;48.47;35.58;;;;;;;15.14;91.02;100953.66;5015491;28;20057;-73
2021/06/08 06:25:50;;;;;;;49.17;35.78;;;;;;;15.17;90.96;100957.00;5028755;28;20112;-74
2021/06/08 06:28:17;;;;;;;45.88;34.78;;;;;;;15.24;90.65;100954.75;5013608;28;20129;-73
2021/06/08 06:30:45;;;;;;;48.67;36.10;;;;;;;15.26;90.47;100950.13;5014926;28;20096;-73
2021/06/08 06:33:12;;;;;;;46.28;35.28;;;;;;;15.40;88.94;100948.31;5029590;28;20041;-73
2021/06/08 06:35:39;;;;;;;52.03;37.03;;;;;;;15.53;88.99;100957.25;5015212;28;20065;-74
2021/06/08 06:38:07;;;;;;;49.00;36.03;;;;;;;15.63;88.71;100956.63;5013396;28;20104;-72
2021/06/08 06:40:36;;;;;;;44.53;33.58;;;;;;;15.72;88.21;100964.06;5015220;28;20398;-74
2021/06/08 06:43:05;;;;;;;51.50;35.00;;;;;;;15.75;87.83;100958.47;5016101;28;20054;-73
2021/06/08 06:45:34;;;;;;;50.33;35.53;;;;;;;15.81;89.07;100966.13;5016172;28;20060;-73
2021/06/08 06:48:02;;;;;;;47.38;34.63;;;;;;;15.83;87.50;100956.09;5015768;28;20045;-73
2021/06/08 06:50:34;;;;;;;46.35;33.92;;;;;;;15.84;86.82;100963.19;5016100;28;20050;-73
2021/06/08 06:53:01;;;;;;;46.55;32.75;;;;;;;15.99;85.70;100966.66;5015749;28;20046;-73
2021/06/08 06:55:29;;;;;;;47.05;33.58;;;;;;;15.95;85.04;100970.53;5015729;28;20061;-74
2021/06/08 06:57:56;;;;;;;48.95;33.28;;;;;;;15.96;84.65;100966.03;5015949;28;20117;-74
2021/06/08 07:00:25;;;;;;;45.88;34.22;;;;;;;16.07;84.82;100974.19;5015897;28;20386;-73
2021/06/08 07:02:54;;;;;;;48.45;32.97;;;;;;;16.08;85.51;100970.50;5015856;28;20053;-74
2021/06/08 07:05:24;;;;;;;45.50;32.63;;;;;;;16.13;85.39;100962.97;5015751;28;20053;-73
2021/06/08 07:07:52;;;;;;;45.05;32.15;;;;;;;16.22;84.05;100965.97;5015621;28;20100;-74
2021/06/08 07:10:23;;;;;;;46.58;34.88;;;;;;;16.26;84.39;100970.16;5015623;28;20045;-73
2021/06/08 07:12:51;;;;;;;46.65;33.33;;;;;;;16.34;83.43;100964.25;5014735;28;20332;-74
2021/06/08 07:15:23;;;;;;;42.85;32.03;;;;;;;16.40;82.77;100964.63;5015629;28;20432;-73
2021/06/08 07:17:50;;;;;;;45.22;31.33;;;;;;;16.45;82.76;100966.16;5015820;28;20108;-73
2021/06/08 07:20:18;;;;;;;40.20;30.17;;;;;;;16.37;83.27;100954.09;5030201;28;20156;-73
2021/06/08 07:22:47;;;;;;;38.45;29.48;;;;;;;16.52;81.68;100972.81;5034987;28;20058;-73
2021/06/08 07:25:18;;;;;;;42.73;28.07;;;;;;;16.51;79.31;100966.53;5035167;28;20087;-74
2021/06/08 07:27:45;;;;;;;41.53;28.52;;;;;;;16.57;77.85;100967.94;5035134;28;20282;-73
2021/06/08 07:30:14;;;;;;;41.25;29.27;;;;;;;16.50;78.90;100969.38;5035372;28;20120;-73
2021/06/08 07:32:49;;;;;;;45.13;30.13;;;;;;;16.63;79.85;100964.81;5034061;28;20057;-73
2021/06/08 07:35:28;;;;;;;38.72;27.58;;;;;;;16.64;79.02;100960.25;5034169;28;20073;-74
2021/06/08 07:37:59;;;;;;;36.33;26.70;;;;;;;16.76;77.75;100969.25;5034050;28;20053;-73
2021/06/08 07:40:29;;;;;;;40.35;28.35;;;;;;;16.84;78.93;100964.19;5034258;28;20058;-73
2021/06/08 07:42:59;;;;;;;40.40;29.05;;;;;;;16.89;79.49;100961.97;5035288;28;20264;-73
2021/06/08 07:45:33;;;;;;;41.20;28.65;;;;;;;16.92;79.28;100940.19;5038041;28;20517;-73
2021/06/08 07:48:03;;;;;;;41.05;30.42;;;;;;;17.21;77.75;100969.50;5038266;28;20085;-73
2021/06/08 07:50:37;;;;;;;40.08;30.23;;;;;;;17.19;77.68;100966.06;5038955;28;20374;-74
2021/06/08 07:53:05;;;;;;;39.60;29.38;;;;;;;17.24;77.74;100957.63;5038951;28;20045;-74
2021/06/08 07:55:32;;;;;;;35.60;25.92;;;;;;;17.37;74.76;100957.53;5038826;28;20397;-74
2021/06/08 07:57:59;;;;;;;36.60;24.90;;;;;;;17.54;74.59;100966.16;5038860;28;20058;-74
2021/06/08 08:00:26;;;;;;;27.52;18.83;;;;;;;17.60;73.99;100963.84;5039042;28;20083;-74
2021/06/08 08:02:54;;;;;;;22.92;16.73;;;;;;;17.72;71.87;100963.84;5036319;28;20045;-73
2021/06/08 08:05:23;;;;;;;20.17;15.27;;;;;;;17.91;67.89;100972.22;5034622;28;20057;-73
2021/06/08 08:07:51;;;;;;;21.20;16.23;;;;;;;17.96;67.98;100969.16;5037051;28;20053;-73
2021/06/08 08:10:22;;;;;;;22.73;15.70;;;;;;;17.97;68.91;100970.88;5038160;28;20083;-74
2021/06/08 08:12:49;;;;;;;14.18;12.05;;;;;;;18.13;65.84;100964.25;5037949;28;20063;-75
2021/06/08 08:15:18;;;;;;;20.48;13.63;;;;;;;18.16;67.27;100967.59;5032002;28;20054;-74
2021/06/08 08:17:48;;;;;;;23.00;15.90;;;;;;;18.15;67.60;100962.31;5025876;28;20058;-74
2021/06/08 08:20:29;;;;;;;21.30;16.08;;;;;;;18.23;67.37;100958.97;5025615;28;20084;-74
2021/06/08 08:22:56;;;;;;;23.83;17.25;;;;;;;18.12;65.77;100935.53;5035814;28;20058;-75
2021/06/08 08:25:23;;;;;;;25.95;17.60;;;;;;;18.34;67.54;100955.44;5034813;28;20057;-73
2021/06/08 08:27:49;;;;;;;24.90;16.38;;;;;;;18.41;67.29;100959.34;5033195;28;20186;-75
2021/06/08 08:30:16;;;;;;;23.73;15.68;;;;;;;18.48;66.72;100952.44;5038466;28;20130;-74
2021/06/08 08:32:43;;;;;;;19.83;14.27;;;;;;;18.58;66.00;100956.09;5037661;28;20045;-74
2021/06/08 08:35:12;;;;;;;20.98;12.50;;;;;;;18.82;64.10;100949.66;5037918;28;20504;-74
2021/06/08 08:37:38;;;;;;;17.45;11.80;;;;;;;18.93;63.65;100935.22;5038089;28;20050;-74
2021/06/08 08:40:06;;;;;;;19.95;11.80;;;;;;;18.94;63.24;100947.75;5038782;28;20061;-74
2021/06/08 08:42:34;;;;;;;15.55;8.80;;;;;;;18.99;59.95;100939.25;5005098;28;20076;-73
2021/06/08 08:45:00;;;;;;;14.05;10.13;;;;;;;19.01;58.48;100950.78;5038565;28;20049;-75
2021/06/08 08:47:27;;;;;;;16.65;8.40;;;;;;;19.04;59.52;100947.00;5038414;28;20123;-74
2021/06/08 08:49:54;;;;;;;11.98;8.70;;;;;;;19.12;57.76;100942.66;5038232;28;20049;-74
2021/06/08 08:52:21;;;;;;;12.48;8.90;;;;;;;19.05;58.65;100938.75;5037811;28;20096;-74
2021/06/08 08:54:48;;;;;;;11.52;8.05;;;;;;;19.08;58.01;100941.22;5038008;28;20100;-74
2021/06/08 08:57:18;;;;;;;14.00;7.50;;;;;;;19.23;54.99;100930.06;5036713;28;20088;-74
2021/06/08 08:59:45;;;;;;;12.23;8.75;;;;;;;19.14;55.59;100919.03;5037962;28;20053;-74
2021/06/08 09:02:32;;;;;;;13.00;7.75;;;;;;;19.23;58.19;100922.81;5037711;28;20052;-75
2021/06/08 09:05:00;;;;;;;11.10;6.67;;;;;;;19.50;56.02;100932.22;5038081;28;20045;-74
2021/06/08 09:07:27;;;;;;;9.95;6.43;;;;;;;19.52;56.70;100927.53;5037675;28;20286;-74
2021/06/08 09:09:54;;;;;;;10.88;7.32;;;;;;;19.62;55.24;100927.59;5037533;28;20045;-74
2021/06/08 09:12:21;;;;;;;11.48;6.43;;;;;;;19.83;56.56;100931.28;5037590;28;20042;-74
2021/06/08 09:14:48;;;;;;;10.75;7.45;;;;;;;19.86;55.07;100936.41;5037543;28;20049;-74
2021/06/08 09:17:19;;;;;;;12.73;7.55;;;;;;;19.74;54.92;100925.69;5036384;28;20050;-74
2021/06/08 09:19:46;;;;;;;12.80;7.65;;;;;;;19.95;54.05;100922.94;5027796;28;20072;-74
2021/06/08 09:22:14;;;;;;;9.20;6.72;;;;;;;20.03;55.86;100929.50;5035989;28;20064;-73
2021/06/08 09:24:44;;;;;;;10.70;6.90;;;;;;;20.00;53.51;100919.81;5037351;28;20091;-73
2021/06/08 09:27:12;;;;;;;12.23;7.28;;;;;;;20.19;53.50;100924.47;5036801;28;20423;-73
2021/06/08 09:29:41;;;;;;;9.65;6.30;;;;;;;20.24;56.03;100925.88;5037097;28;20085;-74
2021/06/08 09:32:24;;;;;;;11.30;6.68;;;;;;;20.29;54.59;100920.91;5036926;28;20053;-72
2021/06/08 09:35:00;;;;;;;11.77;7.03;;;;;;;20.32;53.69;100926.91;5037302;28;20343;-72
2021/06/08 09:37:44;;;;;;;8.75;6.07;;;;;;;20.37;53.16;100925.63;5036629;28;20057;-73
2021/06/08 09:40:17;;;;;;;10.00;6.00;;;;;;;20.39;53.99;100920.94;5036933;28;20435;-73
2021/06/08 09:42:45;;;;;;;7.88;5.38;;;;;;;20.77;52.36;100914.69;5037184;28;20072;-73
2021/06/08 09:45:23;;;;;;;8.30;5.00;;;;;;;20.86;54.15;100907.59;5035872;28;20049;-73
2021/06/08 09:48:00;;;;;;;9.93;5.30;;;;;;;21.05;50.44;100907.72;5036978;28;20088;-73
2021/06/08 09:50:36;;;;;;;8.13;4.68;;;;;;;21.02;49.53;100912.44;5031918;28;20745;-73
2021/06/08 09:53:15;;;;;;;8.15;4.63;;;;;;;20.95;49.53;100905.88;5016796;28;20107;-73
2021/06/08 09:55:52;;;;;;;8.27;4.45;;;;;;;21.00;52.69;100906.31;5017240;28;20395;-73
2021/06/08 09:58:19;;;;;;;8.98;4.90;;;;;;;21.24;51.75;100893.28;5016777;28;20057;-73
2021/06/08 10:01:18;;;;;;;6.22;4.50;;;;;;;21.27;48.52;100896.56;5016080;28;20057;-73
2021/06/08 10:03:50;;;;;;;7.55;4.68;;;;;;;21.27;50.35;100898.41;5028066;28;20053;-73
2021/06/08 10:06:39;;;;;;;7.13;4.20;;;;;;;21.40;50.13;100895.34;5036557;28;20430;-73
2021/06/08 10:09:11;;;;;;;9.60;5.22;;;;;;;21.70;49.39;100897.00;5036461;28;20054;-73
2021/06/08 10:11:40;;;;;;;9.95;5.50;;;;;;;21.68;46.96;100895.44;5029756;28;20057;-73
2021/06/08 10:14:12;;;;;;;7.43;4.50;;;;;;;21.72;46.53;100869.69;5036147;28;20467;-72
2021/06/08 10:16:40;;;;;;;8.95;4.70;;;;;;;21.95;46.55;100886.47;5021770;28;20053;-74
2021/06/08 10:19:10;;;;;;;11.90;4.82;;;;;;;22.09;47.65;100882.41;5021463;28;20446;-73
2021/06/08 10:21:49;;;;;;;8.85;4.38;;;;;;;22.19;46.41;100882.34;5035917;28;20065;-72
2021/06/08 10:24:19;;;;;;;7.45;4.57;;;;;;;22.35;43.36;100888.97;5036383;28;20501;-75
2021/06/08 10:26:52;;;;;;;7.07;3.63;;;;;;;22.48;44.78;100889.44;5036445;28;20053;-73
2021/06/08 10:29:22;;;;;;;6.05;3.70;;;;;;;22.54;43.00;100885.28;5035966;28;20049;-73
2021/06/08 10:31:49;;;;;;;4.65;3.53;;;;;;;22.65;43.34;100893.22;5036349;28;20053;-74
2021/06/08 10:34:38;;;;;;;6.45;3.58;;;;;;;22.60;42.24;100890.09;5034921;28;20359;-73
2021/06/08 10:37:05;;;;;;;4.13;3.67;;;;;;;22.54;43.10;100890.72;5035873;28;20087;-73
2021/06/08 10:39:32;;;;;;;5.75;2.95;;;;;;;22.53;44.51;100891.72;5034713;28;20049;-73
2021/06/08 10:41:59;;;;;;;4.90;3.92;;;;;;;22.60;43.63;100873.78;5035804;28;20351;-75
2021/06/08 10:44:28;;;;;;;7.75;4.40;;;;;;;22.58;43.31;100881.25;5035821;28;20057;-73
2021/06/08 10:47:08;;;;;;;5.55;3.70;;;;;;;22.69;44.82;100887.44;5035632;28;20072;-73
2021/06/08 10:49:37;;;;;;;9.82;4.28;;;;;;;22.76;42.63;100883.97;5034195;28;20439;-72
2021/06/08 10:52:12;;;;;;;5.45;3.80;;;;;;;22.90;41.18;100887.13;5036015;28;20045;-73
2021/06/08 10:54:41;;;;;;;3.83;2.80;;;;;;;23.11;42.85;100885.94;5034846;28;20051;-72
2021/06/08 10:57:13;;;;;;;6.85;3.10;;;;;;;23.32;41.36;100878.28;5035625;28;20144;-73
2021/06/08 10:59:46;;;;;;;5.38;3.05;;;;;;;23.51;42.99;100878.22;5014455;28;20054;-73
2021/06/08 11:02:43;;;;;;;3.83;2.85;;;;;;;23.63;42.52;100873.38;5015853;28;20064;-73
2021/06/08 11:05:11;;;;;;;8.98;3.78;;;;;;;23.68;40.73;100885.47;5016022;28;20188;-73
2021/06/08 11:07:44;;;;;;;6.57;4.38;;;;;;;23.85;38.00;100882.81;5015709;28;20050;-73
2021/06/08 11:10:26;;;;;;;7.32;4.68;;;;;;;23.73;40.28;100879.53;5015613;28;20115;-74
2021/06/08 11:13:08;;;;;;;4.07;3.40;;;;;;;23.86;38.78;100874.50;5015580;28;20443;-74
2021/06/08 11:15:39;;;;;;;5.40;3.50;;;;;;;24.00;39.78;100883.94;5015584;28;20435;-73
2021/06/08 11:18:18;;;;;;;4.57;3.22;;;;;;;24.37;41.62;100883.72;5014827;28;20100;-74
2021/06/08 11:20:47;;;;;;;6.35;4.95;;;;;;;24.07;38.60;100870.50;5014995;28;20050;-72
2021/06/08 11:23:44;;;;;;;8.45;4.25;;;;;;;24.07;40.19;100859.59;5015291;28;20061;-72
2021/06/08 11:26:14;;;;;;;7.30;4.07;;;;;;;24.05;38.20;100877.97;5015389;28;20505;-72